sensor_id;sensor_type;location;lat;lon;timestamp;P1;durP1;ratioP1;P2;durP2;ratioP2
7181;SDS011;3632;42.724;23.298;2023-03-23T00:01:29;46.73;;;30.40;;
7181;SDS011;3632;42.724;23.298;2023-03-23T00:03:57;45.67;;;32.57;;
7181;SDS011;3632;42.724;23.298;2023-03-23T00:06:25;47.90;;;32.77;;
7181;SDS011;3632;42.724;23.298;2023-03-23T00:08:59;33.83;;;24.50;;
7181;SDS011;3632;42.724;23.298;2023-03-23T00:11:30;32.00;;;24.50;;
7181;SDS011;3632;42.724;23.298;2023-03-23T00:13:58;39.40;;;26.43;;
7181;SDS011;3632;42.724;23.298;2023-03-23T00:16:27;39.73;;;27.60;;
7181;SDS011;3632;42.724;23.298;2023-03-23T00:18:57;43.30;;;27.37;;
7181;SDS011;3632;42.724;23.298;2023-03-23T00:21:26;39.97;;;27.67;;
7181;SDS011;3632;42.724;23.298;2023-03-23T00:24:00;40.63;;;28.53;;
7181;SDS011;3632;42.724;23.298;2023-03-23T00:26:30;42.13;;;29.37;;
7181;SDS011;3632;42.724;23.298;2023-03-23T00:28:59;44.03;;;28.70;;
7181;SDS011;3632;42.724;23.298;2023-03-23T00:31:27;43.37;;;29.43;;
7181;SDS011;3632;42.724;23.298;2023-03-23T00:33:56;43.07;;;29.53;;
7181;SDS011;3632;42.724;23.298;2023-03-23T00:36:26;42.47;;;30.13;;
7181;SDS011;3632;42.724;23.298;2023-03-23T00:38:54;43.13;;;27.70;;
7181;SDS011;3632;42.724;23.298;2023-03-23T00:41:24;42.67;;;30.30;;
7181;SDS011;3632;42.724;23.298;2023-03-23T00:43:53;42.57;;;28.10;;
7181;SDS011;3632;42.724;23.298;2023-03-23T00:46:21;37.57;;;26.60;;
7181;SDS011;3632;42.724;23.298;2023-03-23T00:48:48;43.70;;;28.77;;
7181;SDS011;3632;42.724;23.298;2023-03-23T00:51:16;37.63;;;28.00;;
7181;SDS011;3632;42.724;23.298;2023-03-23T00:53:43;41.17;;;27.23;;
7181;SDS011;3632;42.724;23.298;2023-03-23T00:56:10;38.67;;;28.03;;
7181;SDS011;3632;42.724;23.298;2023-03-23T00:58:37;40.57;;;27.63;;
7181;SDS011;3632;42.724;23.298;2023-03-23T01:01:06;37.83;;;27.30;;
7181;SDS011;3632;42.724;23.298;2023-03-23T01:03:34;40.23;;;26.63;;
7181;SDS011;3632;42.724;23.298;2023-03-23T01:06:05;40.23;;;28.53;;
7181;SDS011;3632;42.724;23.298;2023-03-23T01:08:33;43.90;;;28.93;;
7181;SDS011;3632;42.724;23.298;2023-03-23T01:11:02;38.23;;;28.37;;
7181;SDS011;3632;42.724;23.298;2023-03-23T01:13:31;40.73;;;29.00;;
7181;SDS011;3632;42.724;23.298;2023-03-23T01:15:58;39.17;;;28.67;;
7181;SDS011;3632;42.724;23.298;2023-03-23T01:18:26;44.13;;;29.30;;
7181;SDS011;3632;42.724;23.298;2023-03-23T01:20:53;36.07;;;28.77;;
7181;SDS011;3632;42.724;23.298;2023-03-23T01:23:20;42.17;;;32.13;;
7181;SDS011;3632;42.724;23.298;2023-03-23T01:25:47;36.13;;;27.63;;
7181;SDS011;3632;42.724;23.298;2023-03-23T01:28:14;34.83;;;26.53;;
7181;SDS011;3632;42.724;23.298;2023-03-23T01:30:41;34.47;;;26.40;;
7181;SDS011;3632;42.724;23.298;2023-03-23T01:33:08;31.00;;;24.53;;
7181;SDS011;3632;42.724;23.298;2023-03-23T01:35:38;34.83;;;25.07;;
7181;SDS011;3632;42.724;23.298;2023-03-23T01:38:04;31.40;;;23.77;;
7181;SDS011;3632;42.724;23.298;2023-03-23T01:40:31;37.87;;;25.20;;
7181;SDS011;3632;42.724;23.298;2023-03-23T01:42:58;35.53;;;25.43;;
7181;SDS011;3632;42.724;23.298;2023-03-23T01:45:29;32.67;;;24.57;;
7181;SDS011;3632;42.724;23.298;2023-03-23T01:48:01;31.57;;;23.53;;
7181;SDS011;3632;42.724;23.298;2023-03-23T01:50:33;31.37;;;23.90;;
7181;SDS011;3632;42.724;23.298;2023-03-23T01:53:09;34.13;;;24.50;;
7181;SDS011;3632;42.724;23.298;2023-03-23T01:55:38;33.07;;;25.20;;
7181;SDS011;3632;42.724;23.298;2023-03-23T01:58:07;38.27;;;27.20;;
7181;SDS011;3632;42.724;23.298;2023-03-23T02:00:35;35.33;;;25.63;;
7181;SDS011;3632;42.724;23.298;2023-03-23T02:03:05;35.03;;;24.97;;
7181;SDS011;3632;42.724;23.298;2023-03-23T02:05:36;33.03;;;24.77;;
7181;SDS011;3632;42.724;23.298;2023-03-23T02:08:07;32.90;;;24.83;;
7181;SDS011;3632;42.724;23.298;2023-03-23T02:10:38;32.93;;;24.37;;
7181;SDS011;3632;42.724;23.298;2023-03-23T02:13:06;34.00;;;24.23;;
7181;SDS011;3632;42.724;23.298;2023-03-23T02:15:38;39.93;;;26.23;;
7181;SDS011;3632;42.724;23.298;2023-03-23T02:18:13;35.97;;;25.30;;
7181;SDS011;3632;42.724;23.298;2023-03-23T02:20:59;35.77;;;25.20;;
7181;SDS011;3632;42.724;23.298;2023-03-23T02:23:52;32.43;;;22.97;;
7181;SDS011;3632;42.724;23.298;2023-03-23T02:26:43;34.60;;;25.37;;
7181;SDS011;3632;42.724;23.298;2023-03-23T02:32:12;32.03;;;23.97;;
7181;SDS011;3632;42.724;23.298;2023-03-23T02:34:49;30.17;;;22.50;;
7181;SDS011;3632;42.724;23.298;2023-03-23T02:37:20;32.53;;;22.97;;
7181;SDS011;3632;42.724;23.298;2023-03-23T02:39:51;35.27;;;24.00;;
7181;SDS011;3632;42.724;23.298;2023-03-23T02:42:23;33.93;;;24.67;;
7181;SDS011;3632;42.724;23.298;2023-03-23T02:44:52;34.23;;;23.20;;
7181;SDS011;3632;42.724;23.298;2023-03-23T02:47:21;33.10;;;23.60;;
7181;SDS011;3632;42.724;23.298;2023-03-23T02:49:53;34.67;;;25.30;;
7181;SDS011;3632;42.724;23.298;2023-03-23T02:52:22;35.23;;;24.50;;
7181;SDS011;3632;42.724;23.298;2023-03-23T02:54:52;35.73;;;24.20;;
7181;SDS011;3632;42.724;23.298;2023-03-23T02:57:23;37.63;;;25.70;;
7181;SDS011;3632;42.724;23.298;2023-03-23T02:59:52;35.07;;;25.27;;
7181;SDS011;3632;42.724;23.298;2023-03-23T03:02:20;36.40;;;24.53;;
7181;SDS011;3632;42.724;23.298;2023-03-23T03:04:53;38.57;;;24.93;;
7181;SDS011;3632;42.724;23.298;2023-03-23T03:07:33;33.50;;;23.73;;
7181;SDS011;3632;42.724;23.298;2023-03-23T03:10:14;35.60;;;24.53;;
7181;SDS011;3632;42.724;23.298;2023-03-23T03:12:46;47.17;;;31.57;;
7181;SDS011;3632;42.724;23.298;2023-03-23T03:15:25;46.47;;;28.90;;
7181;SDS011;3632;42.724;23.298;2023-03-23T03:17:59;41.53;;;29.27;;
7181;SDS011;3632;42.724;23.298;2023-03-23T03:20:31;43.07;;;29.03;;
7181;SDS011;3632;42.724;23.298;2023-03-23T03:23:03;40.10;;;28.20;;
7181;SDS011;3632;42.724;23.298;2023-03-23T03:25:32;39.17;;;27.07;;
7181;SDS011;3632;42.724;23.298;2023-03-23T03:28:00;38.10;;;26.70;;
7181;SDS011;3632;42.724;23.298;2023-03-23T03:30:30;37.63;;;26.53;;
7181;SDS011;3632;42.724;23.298;2023-03-23T03:33:00;41.77;;;26.17;;
7181;SDS011;3632;42.724;23.298;2023-03-23T03:35:28;38.77;;;25.83;;
7181;SDS011;3632;42.724;23.298;2023-03-23T03:37:58;36.93;;;26.47;;
7181;SDS011;3632;42.724;23.298;2023-03-23T03:40:32;39.57;;;27.63;;
7181;SDS011;3632;42.724;23.298;2023-03-23T03:42:59;39.90;;;26.80;;
7181;SDS011;3632;42.724;23.298;2023-03-23T03:45:25;47.63;;;33.77;;
7181;SDS011;3632;42.724;23.298;2023-03-23T03:47:52;39.07;;;28.57;;
7181;SDS011;3632;42.724;23.298;2023-03-23T03:50:19;38.83;;;28.60;;
7181;SDS011;3632;42.724;23.298;2023-03-23T03:52:46;37.73;;;28.10;;
7181;SDS011;3632;42.724;23.298;2023-03-23T03:55:14;39.77;;;27.40;;
7181;SDS011;3632;42.724;23.298;2023-03-23T03:57:42;33.53;;;24.67;;
7181;SDS011;3632;42.724;23.298;2023-03-23T04:00:09;34.47;;;23.83;;
7181;SDS011;3632;42.724;23.298;2023-03-23T04:02:40;30.77;;;21.90;;
7181;SDS011;3632;42.724;23.298;2023-03-23T04:05:08;26.97;;;20.17;;
7181;SDS011;3632;42.724;23.298;2023-03-23T04:07:36;24.00;;;19.13;;
7181;SDS011;3632;42.724;23.298;2023-03-23T04:10:05;24.33;;;18.70;;
7181;SDS011;3632;42.724;23.298;2023-03-23T04:12:34;28.43;;;20.77;;
7181;SDS011;3632;42.724;23.298;2023-03-23T04:15:02;27.07;;;20.30;;
7181;SDS011;3632;42.724;23.298;2023-03-23T04:17:30;30.30;;;20.17;;
7181;SDS011;3632;42.724;23.298;2023-03-23T04:19:57;31.57;;;21.23;;
7181;SDS011;3632;42.724;23.298;2023-03-23T04:22:25;29.40;;;21.50;;
7181;SDS011;3632;42.724;23.298;2023-03-23T04:24:55;37.50;;;25.23;;
7181;SDS011;3632;42.724;23.298;2023-03-23T04:27:23;38.43;;;27.43;;
7181;SDS011;3632;42.724;23.298;2023-03-23T04:29:54;41.10;;;28.77;;
7181;SDS011;3632;42.724;23.298;2023-03-23T04:32:23;33.40;;;23.33;;
7181;SDS011;3632;42.724;23.298;2023-03-23T04:34:54;30.27;;;22.10;;
7181;SDS011;3632;42.724;23.298;2023-03-23T04:37:21;27.60;;;20.87;;
7181;SDS011;3632;42.724;23.298;2023-03-23T04:39:50;29.90;;;22.03;;
7181;SDS011;3632;42.724;23.298;2023-03-23T04:42:26;28.67;;;22.50;;
7181;SDS011;3632;42.724;23.298;2023-03-23T04:44:55;31.00;;;22.87;;
7181;SDS011;3632;42.724;23.298;2023-03-23T04:47:23;32.40;;;22.33;;
7181;SDS011;3632;42.724;23.298;2023-03-23T04:49:54;34.10;;;22.33;;
7181;SDS011;3632;42.724;23.298;2023-03-23T04:52:21;31.90;;;21.93;;
7181;SDS011;3632;42.724;23.298;2023-03-23T04:54:50;31.20;;;22.30;;
7181;SDS011;3632;42.724;23.298;2023-03-23T04:57:16;31.73;;;23.47;;
7181;SDS011;3632;42.724;23.298;2023-03-23T04:59:43;33.67;;;23.47;;
7181;SDS011;3632;42.724;23.298;2023-03-23T05:02:11;39.83;;;29.33;;
7181;SDS011;3632;42.724;23.298;2023-03-23T05:04:38;66.60;;;46.00;;
7181;SDS011;3632;42.724;23.298;2023-03-23T05:07:06;32.13;;;22.87;;
7181;SDS011;3632;42.724;23.298;2023-03-23T05:09:33;27.77;;;19.30;;
7181;SDS011;3632;42.724;23.298;2023-03-23T05:12:03;28.17;;;19.23;;
7181;SDS011;3632;42.724;23.298;2023-03-23T05:14:31;22.63;;;18.63;;
7181;SDS011;3632;42.724;23.298;2023-03-23T05:16:57;25.73;;;18.83;;
7181;SDS011;3632;42.724;23.298;2023-03-23T05:19:25;24.27;;;18.90;;
7181;SDS011;3632;42.724;23.298;2023-03-23T05:21:53;27.10;;;20.03;;
7181;SDS011;3632;42.724;23.298;2023-03-23T05:24:19;26.47;;;19.20;;
7181;SDS011;3632;42.724;23.298;2023-03-23T05:26:46;27.47;;;19.47;;
7181;SDS011;3632;42.724;23.298;2023-03-23T05:29:17;25.40;;;18.27;;
7181;SDS011;3632;42.724;23.298;2023-03-23T05:31:44;27.00;;;19.03;;
7181;SDS011;3632;42.724;23.298;2023-03-23T05:34:11;26.83;;;19.57;;
7181;SDS011;3632;42.724;23.298;2023-03-23T05:36:39;23.87;;;18.23;;
7181;SDS011;3632;42.724;23.298;2023-03-23T05:39:06;27.77;;;19.10;;
7181;SDS011;3632;42.724;23.298;2023-03-23T05:41:34;24.20;;;19.03;;
7181;SDS011;3632;42.724;23.298;2023-03-23T05:44:02;27.53;;;19.90;;
7181;SDS011;3632;42.724;23.298;2023-03-23T05:46:29;27.97;;;19.97;;
7181;SDS011;3632;42.724;23.298;2023-03-23T05:48:56;33.17;;;21.40;;
7181;SDS011;3632;42.724;23.298;2023-03-23T05:51:23;33.27;;;21.30;;
7181;SDS011;3632;42.724;23.298;2023-03-23T05:53:51;42.50;;;24.47;;
7181;SDS011;3632;42.724;23.298;2023-03-23T05:56:18;39.30;;;23.87;;
7181;SDS011;3632;42.724;23.298;2023-03-23T05:58:45;25.33;;;18.07;;
7181;SDS011;3632;42.724;23.298;2023-03-23T06:01:11;29.20;;;19.20;;
7181;SDS011;3632;42.724;23.298;2023-03-23T06:03:39;31.83;;;19.80;;
7181;SDS011;3632;42.724;23.298;2023-03-23T06:06:05;28.17;;;19.07;;
7181;SDS011;3632;42.724;23.298;2023-03-23T06:08:33;31.63;;;21.13;;
7181;SDS011;3632;42.724;23.298;2023-03-23T06:11:03;31.23;;;21.20;;
7181;SDS011;3632;42.724;23.298;2023-03-23T06:13:31;32.83;;;21.80;;
7181;SDS011;3632;42.724;23.298;2023-03-23T06:15:58;32.33;;;23.23;;
7181;SDS011;3632;42.724;23.298;2023-03-23T06:18:24;32.67;;;22.73;;
7181;SDS011;3632;42.724;23.298;2023-03-23T06:20:53;33.83;;;22.03;;
7181;SDS011;3632;42.724;23.298;2023-03-23T06:23:21;31.70;;;22.27;;
7181;SDS011;3632;42.724;23.298;2023-03-23T06:25:48;30.07;;;22.30;;
7181;SDS011;3632;42.724;23.298;2023-03-23T06:28:16;32.13;;;21.53;;
7181;SDS011;3632;42.724;23.298;2023-03-23T06:30:43;28.77;;;20.93;;
7181;SDS011;3632;42.724;23.298;2023-03-23T06:33:10;30.00;;;21.77;;
7181;SDS011;3632;42.724;23.298;2023-03-23T06:35:37;32.13;;;24.00;;
7181;SDS011;3632;42.724;23.298;2023-03-23T06:38:04;28.50;;;21.30;;
7181;SDS011;3632;42.724;23.298;2023-03-23T06:40:31;29.47;;;21.30;;
7181;SDS011;3632;42.724;23.298;2023-03-23T06:42:58;32.20;;;23.30;;
7181;SDS011;3632;42.724;23.298;2023-03-23T06:45:26;35.20;;;26.10;;
7181;SDS011;3632;42.724;23.298;2023-03-23T06:47:53;38.90;;;26.97;;
7181;SDS011;3632;42.724;23.298;2023-03-23T06:50:19;40.07;;;25.83;;
7181;SDS011;3632;42.724;23.298;2023-03-23T06:52:46;30.43;;;23.60;;
7181;SDS011;3632;42.724;23.298;2023-03-23T06:55:14;31.33;;;24.90;;
7181;SDS011;3632;42.724;23.298;2023-03-23T06:57:42;37.40;;;25.73;;
7181;SDS011;3632;42.724;23.298;2023-03-23T07:00:10;31.83;;;24.50;;
7181;SDS011;3632;42.724;23.298;2023-03-23T07:02:40;31.87;;;24.47;;
7181;SDS011;3632;42.724;23.298;2023-03-23T07:05:07;32.87;;;23.70;;
7181;SDS011;3632;42.724;23.298;2023-03-23T07:07:35;32.10;;;24.87;;
7181;SDS011;3632;42.724;23.298;2023-03-23T07:10:02;33.57;;;24.33;;
7181;SDS011;3632;42.724;23.298;2023-03-23T07:12:30;32.80;;;23.80;;
7181;SDS011;3632;42.724;23.298;2023-03-23T07:14:56;35.20;;;23.87;;
7181;SDS011;3632;42.724;23.298;2023-03-23T07:17:23;33.17;;;24.23;;
7181;SDS011;3632;42.724;23.298;2023-03-23T07:19:52;26.83;;;22.47;;
7181;SDS011;3632;42.724;23.298;2023-03-23T07:22:19;29.63;;;22.13;;
7181;SDS011;3632;42.724;23.298;2023-03-23T07:24:46;31.63;;;23.70;;
7181;SDS011;3632;42.724;23.298;2023-03-23T07:27:13;28.30;;;23.30;;
7181;SDS011;3632;42.724;23.298;2023-03-23T07:29:40;30.63;;;23.10;;
7181;SDS011;3632;42.724;23.298;2023-03-23T07:32:08;32.97;;;22.60;;
7181;SDS011;3632;42.724;23.298;2023-03-23T07:34:37;30.63;;;23.30;;
7181;SDS011;3632;42.724;23.298;2023-03-23T07:37:05;38.77;;;24.67;;
7181;SDS011;3632;42.724;23.298;2023-03-23T07:39:32;30.03;;;23.97;;
7181;SDS011;3632;42.724;23.298;2023-03-23T07:42:00;34.10;;;24.80;;
7181;SDS011;3632;42.724;23.298;2023-03-23T07:44:27;31.43;;;24.17;;
7181;SDS011;3632;42.724;23.298;2023-03-23T07:46:54;30.30;;;23.60;;
7181;SDS011;3632;42.724;23.298;2023-03-23T07:49:21;27.83;;;20.37;;
7181;SDS011;3632;42.724;23.298;2023-03-23T07:51:48;32.10;;;22.10;;
7181;SDS011;3632;42.724;23.298;2023-03-23T07:54:16;31.27;;;24.23;;
7181;SDS011;3632;42.724;23.298;2023-03-23T07:56:43;31.57;;;24.57;;
7181;SDS011;3632;42.724;23.298;2023-03-23T07:59:10;29.60;;;23.70;;
7181;SDS011;3632;42.724;23.298;2023-03-23T08:01:38;30.40;;;23.67;;
7181;SDS011;3632;42.724;23.298;2023-03-23T08:04:05;35.57;;;23.20;;
7181;SDS011;3632;42.724;23.298;2023-03-23T08:06:32;33.67;;;22.50;;
7181;SDS011;3632;42.724;23.298;2023-03-23T08:09:00;28.03;;;22.07;;
7181;SDS011;3632;42.724;23.298;2023-03-23T08:11:30;30.00;;;22.17;;
7181;SDS011;3632;42.724;23.298;2023-03-23T08:13:56;29.70;;;22.53;;
7181;SDS011;3632;42.724;23.298;2023-03-23T08:16:23;31.37;;;23.00;;
7181;SDS011;3632;42.724;23.298;2023-03-23T08:18:50;32.07;;;24.10;;
7181;SDS011;3632;42.724;23.298;2023-03-23T08:21:17;31.67;;;24.37;;
7181;SDS011;3632;42.724;23.298;2023-03-23T08:23:44;39.83;;;27.83;;
7181;SDS011;3632;42.724;23.298;2023-03-23T08:26:11;42.50;;;29.20;;
7181;SDS011;3632;42.724;23.298;2023-03-23T08:28:41;39.03;;;29.80;;
7181;SDS011;3632;42.724;23.298;2023-03-23T08:31:09;37.07;;;27.93;;
7181;SDS011;3632;42.724;23.298;2023-03-23T08:33:37;29.83;;;23.37;;
7181;SDS011;3632;42.724;23.298;2023-03-23T08:36:06;36.73;;;24.17;;
7181;SDS011;3632;42.724;23.298;2023-03-23T08:38:34;27.37;;;22.07;;
7181;SDS011;3632;42.724;23.298;2023-03-23T08:41:01;25.87;;;18.40;;
7181;SDS011;3632;42.724;23.298;2023-03-23T08:43:30;19.53;;;16.87;;
7181;SDS011;3632;42.724;23.298;2023-03-23T08:45:59;23.23;;;17.50;;
7181;SDS011;3632;42.724;23.298;2023-03-23T08:48:26;19.23;;;14.90;;
7181;SDS011;3632;42.724;23.298;2023-03-23T08:50:53;24.20;;;17.57;;
7181;SDS011;3632;42.724;23.298;2023-03-23T08:53:20;15.80;;;13.00;;
7181;SDS011;3632;42.724;23.298;2023-03-23T08:55:47;17.23;;;14.83;;
7181;SDS011;3632;42.724;23.298;2023-03-23T08:58:14;15.73;;;10.50;;
7181;SDS011;3632;42.724;23.298;2023-03-23T09:00:41;13.87;;;10.70;;
7181;SDS011;3632;42.724;23.298;2023-03-23T09:03:09;15.53;;;13.63;;
7181;SDS011;3632;42.724;23.298;2023-03-23T09:05:36;18.07;;;13.83;;
7181;SDS011;3632;42.724;23.298;2023-03-23T09:08:08;13.67;;;11.80;;
7181;SDS011;3632;42.724;23.298;2023-03-23T09:10:35;11.90;;;9.33;;
7181;SDS011;3632;42.724;23.298;2023-03-23T09:13:01;14.03;;;11.83;;
7181;SDS011;3632;42.724;23.298;2023-03-23T09:15:28;12.20;;;10.47;;
7181;SDS011;3632;42.724;23.298;2023-03-23T09:17:56;14.90;;;12.27;;
7181;SDS011;3632;42.724;23.298;2023-03-23T09:20:25;13.13;;;10.33;;
7181;SDS011;3632;42.724;23.298;2023-03-23T09:22:54;8.00;;;7.20;;
7181;SDS011;3632;42.724;23.298;2023-03-23T09:25:22;12.60;;;9.10;;
7181;SDS011;3632;42.724;23.298;2023-03-23T09:27:52;9.87;;;8.33;;
7181;SDS011;3632;42.724;23.298;2023-03-23T09:30:22;11.57;;;10.07;;
7181;SDS011;3632;42.724;23.298;2023-03-23T09:32:51;11.83;;;8.37;;
7181;SDS011;3632;42.724;23.298;2023-03-23T09:35:18;15.30;;;11.73;;
7181;SDS011;3632;42.724;23.298;2023-03-23T09:37:48;11.43;;;9.07;;
7181;SDS011;3632;42.724;23.298;2023-03-23T09:40:17;14.80;;;13.30;;
7181;SDS011;3632;42.724;23.298;2023-03-23T09:42:50;13.93;;;12.33;;
7181;SDS011;3632;42.724;23.298;2023-03-23T09:45:36;13.80;;;9.77;;
7181;SDS011;3632;42.724;23.298;2023-03-23T09:48:23;12.00;;;9.10;;
7181;SDS011;3632;42.724;23.298;2023-03-23T09:50:57;12.23;;;10.27;;
7181;SDS011;3632;42.724;23.298;2023-03-23T09:53:30;9.97;;;8.87;;
7181;SDS011;3632;42.724;23.298;2023-03-23T09:56:03;11.73;;;9.50;;
7181;SDS011;3632;42.724;23.298;2023-03-23T09:58:37;9.60;;;8.27;;
7181;SDS011;3632;42.724;23.298;2023-03-23T10:01:10;9.57;;;8.17;;
7181;SDS011;3632;42.724;23.298;2023-03-23T10:03:42;8.93;;;7.73;;
7181;SDS011;3632;42.724;23.298;2023-03-23T10:06:12;10.33;;;9.23;;
7181;SDS011;3632;42.724;23.298;2023-03-23T10:08:45;8.03;;;7.23;;
7181;SDS011;3632;42.724;23.298;2023-03-23T10:11:19;10.33;;;7.87;;
7181;SDS011;3632;42.724;23.298;2023-03-23T10:14:00;10.40;;;9.00;;
7181;SDS011;3632;42.724;23.298;2023-03-23T10:16:48;7.87;;;7.17;;
7181;SDS011;3632;42.724;23.298;2023-03-23T10:19:24;8.40;;;7.57;;
7181;SDS011;3632;42.724;23.298;2023-03-23T10:21:56;8.63;;;7.57;;
7181;SDS011;3632;42.724;23.298;2023-03-23T10:24:31;7.97;;;6.70;;
7181;SDS011;3632;42.724;23.298;2023-03-23T10:27:03;8.83;;;7.63;;
7181;SDS011;3632;42.724;23.298;2023-03-23T10:29:40;7.97;;;7.17;;
7181;SDS011;3632;42.724;23.298;2023-03-23T10:32:11;7.30;;;6.60;;
7181;SDS011;3632;42.724;23.298;2023-03-23T10:34:41;7.77;;;6.97;;
7181;SDS011;3632;42.724;23.298;2023-03-23T10:37:11;8.33;;;7.43;;
7181;SDS011;3632;42.724;23.298;2023-03-23T10:39:46;8.83;;;7.40;;
7181;SDS011;3632;42.724;23.298;2023-03-23T10:42:26;8.03;;;7.23;;
7181;SDS011;3632;42.724;23.298;2023-03-23T10:44:55;8.57;;;7.77;;
7181;SDS011;3632;42.724;23.298;2023-03-23T10:47:24;8.83;;;7.93;;
7181;SDS011;3632;42.724;23.298;2023-03-23T10:49:51;9.20;;;8.30;;
7181;SDS011;3632;42.724;23.298;2023-03-23T10:52:27;10.70;;;9.60;;
7181;SDS011;3632;42.724;23.298;2023-03-23T10:55:03;8.23;;;7.37;;
7181;SDS011;3632;42.724;23.298;2023-03-23T10:57:32;8.37;;;7.30;;
7181;SDS011;3632;42.724;23.298;2023-03-23T11:00:01;9.13;;;7.73;;
7181;SDS011;3632;42.724;23.298;2023-03-23T11:02:35;10.53;;;9.47;;
7181;SDS011;3632;42.724;23.298;2023-03-23T11:05:06;8.70;;;7.77;;
7181;SDS011;3632;42.724;23.298;2023-03-23T11:07:40;8.20;;;7.40;;
7181;SDS011;3632;42.724;23.298;2023-03-23T11:10:16;8.40;;;7.60;;
7181;SDS011;3632;42.724;23.298;2023-03-23T11:12:47;7.03;;;6.40;;
7181;SDS011;3632;42.724;23.298;2023-03-23T11:15:21;8.60;;;7.60;;
7181;SDS011;3632;42.724;23.298;2023-03-23T11:17:59;8.53;;;7.63;;
7181;SDS011;3632;42.724;23.298;2023-03-23T11:20:28;8.37;;;7.57;;
7181;SDS011;3632;42.724;23.298;2023-03-23T11:23:01;8.03;;;6.70;;
7181;SDS011;3632;42.724;23.298;2023-03-23T11:25:39;9.60;;;7.73;;
7181;SDS011;3632;42.724;23.298;2023-03-23T11:28:22;7.90;;;7.07;;
7181;SDS011;3632;42.724;23.298;2023-03-23T11:30:54;7.80;;;6.90;;
7181;SDS011;3632;42.724;23.298;2023-03-23T11:33:22;7.50;;;6.77;;
7181;SDS011;3632;42.724;23.298;2023-03-23T11:35:51;7.30;;;6.50;;
7181;SDS011;3632;42.724;23.298;2023-03-23T11:38:23;7.27;;;6.63;;
7181;SDS011;3632;42.724;23.298;2023-03-23T11:40:54;11.53;;;10.33;;
7181;SDS011;3632;42.724;23.298;2023-03-23T11:43:22;8.87;;;7.90;;
7181;SDS011;3632;42.724;23.298;2023-03-23T11:45:54;7.93;;;7.23;;
7181;SDS011;3632;42.724;23.298;2023-03-23T11:48:29;8.43;;;7.63;;
7181;SDS011;3632;42.724;23.298;2023-03-23T11:51:02;7.23;;;6.53;;
7181;SDS011;3632;42.724;23.298;2023-03-23T11:53:40;9.90;;;6.53;;
7181;SDS011;3632;42.724;23.298;2023-03-23T11:56:17;7.33;;;5.93;;
7181;SDS011;3632;42.724;23.298;2023-03-23T11:58:52;6.33;;;5.80;;
7181;SDS011;3632;42.724;23.298;2023-03-23T12:01:26;8.03;;;5.43;;
7181;SDS011;3632;42.724;23.298;2023-03-23T12:07:07;10.33;;;5.30;;
7181;SDS011;3632;42.724;23.298;2023-03-23T12:09:58;7.30;;;6.27;;
7181;SDS011;3632;42.724;23.298;2023-03-23T12:12:38;7.50;;;6.47;;
7181;SDS011;3632;42.724;23.298;2023-03-23T12:18:06;7.00;;;5.43;;
7181;SDS011;3632;42.724;23.298;2023-03-23T12:20:44;10.93;;;6.37;;
7181;SDS011;3632;42.724;23.298;2023-03-23T12:23:22;8.47;;;6.30;;
7181;SDS011;3632;42.724;23.298;2023-03-23T12:26:03;6.27;;;5.03;;
7181;SDS011;3632;42.724;23.298;2023-03-23T12:28:48;5.93;;;5.10;;
7181;SDS011;3632;42.724;23.298;2023-03-23T12:31:25;7.10;;;6.07;;
7181;SDS011;3632;42.724;23.298;2023-03-23T12:34:01;7.60;;;6.50;;
7181;SDS011;3632;42.724;23.298;2023-03-23T12:36:40;7.30;;;5.80;;
7181;SDS011;3632;42.724;23.298;2023-03-23T12:42:28;7.33;;;5.80;;
7181;SDS011;3632;42.724;23.298;2023-03-23T12:45:07;7.17;;;6.50;;
7181;SDS011;3632;42.724;23.298;2023-03-23T12:47:47;7.83;;;6.53;;
7181;SDS011;3632;42.724;23.298;2023-03-23T12:50:21;6.30;;;5.70;;
7181;SDS011;3632;42.724;23.298;2023-03-23T12:52:54;5.70;;;4.90;;
7181;SDS011;3632;42.724;23.298;2023-03-23T12:55:27;4.80;;;4.47;;
7181;SDS011;3632;42.724;23.298;2023-03-23T12:57:59;5.43;;;5.03;;
7181;SDS011;3632;42.724;23.298;2023-03-23T13:00:30;6.23;;;5.17;;
7181;SDS011;3632;42.724;23.298;2023-03-23T13:03:17;5.50;;;5.00;;
7181;SDS011;3632;42.724;23.298;2023-03-23T13:05:50;5.73;;;4.73;;
7181;SDS011;3632;42.724;23.298;2023-03-23T13:08:22;5.30;;;4.80;;
7181;SDS011;3632;42.724;23.298;2023-03-23T13:10:54;6.43;;;5.20;;
7181;SDS011;3632;42.724;23.298;2023-03-23T13:13:24;7.67;;;5.40;;
7181;SDS011;3632;42.724;23.298;2023-03-23T13:16:00;7.60;;;5.60;;
7181;SDS011;3632;42.724;23.298;2023-03-23T13:18:35;7.30;;;5.73;;
7181;SDS011;3632;42.724;23.298;2023-03-23T13:21:11;5.60;;;5.03;;
7181;SDS011;3632;42.724;23.298;2023-03-23T13:23:43;5.67;;;5.10;;
7181;SDS011;3632;42.724;23.298;2023-03-23T13:26:16;7.77;;;5.60;;
7181;SDS011;3632;42.724;23.298;2023-03-23T13:28:51;7.77;;;4.80;;
7181;SDS011;3632;42.724;23.298;2023-03-23T13:31:25;6.97;;;4.83;;
7181;SDS011;3632;42.724;23.298;2023-03-23T13:33:59;7.77;;;5.33;;
7181;SDS011;3632;42.724;23.298;2023-03-23T13:36:31;6.30;;;5.37;;
7181;SDS011;3632;42.724;23.298;2023-03-23T13:39:02;7.17;;;4.87;;
7181;SDS011;3632;42.724;23.298;2023-03-23T13:41:44;6.27;;;5.30;;
7181;SDS011;3632;42.724;23.298;2023-03-23T13:44:18;6.03;;;5.43;;
7181;SDS011;3632;42.724;23.298;2023-03-23T13:46:55;5.50;;;5.00;;
7181;SDS011;3632;42.724;23.298;2023-03-23T13:49:24;5.73;;;4.83;;
7181;SDS011;3632;42.724;23.298;2023-03-23T13:52:13;7.40;;;5.10;;
7181;SDS011;3632;42.724;23.298;2023-03-23T13:54:43;5.63;;;5.00;;
7181;SDS011;3632;42.724;23.298;2023-03-23T13:57:24;5.93;;;5.07;;
7181;SDS011;3632;42.724;23.298;2023-03-23T14:00:08;6.63;;;5.60;;
7181;SDS011;3632;42.724;23.298;2023-03-23T14:02:40;7.27;;;5.60;;
7181;SDS011;3632;42.724;23.298;2023-03-23T14:05:23;8.57;;;5.20;;
7181;SDS011;3632;42.724;23.298;2023-03-23T14:07:57;5.70;;;5.20;;
7181;SDS011;3632;42.724;23.298;2023-03-23T14:10:31;5.70;;;4.87;;
7181;SDS011;3632;42.724;23.298;2023-03-23T14:13:00;8.00;;;5.13;;
7181;SDS011;3632;42.724;23.298;2023-03-23T14:15:29;11.30;;;10.10;;
7181;SDS011;3632;42.724;23.298;2023-03-23T14:18:00;6.03;;;5.43;;
7181;SDS011;3632;42.724;23.298;2023-03-23T14:20:30;9.53;;;4.67;;
7181;SDS011;3632;42.724;23.298;2023-03-23T14:22:59;6.87;;;5.67;;
7181;SDS011;3632;42.724;23.298;2023-03-23T14:25:28;6.57;;;5.00;;
7181;SDS011;3632;42.724;23.298;2023-03-23T14:27:57;5.80;;;4.70;;
7181;SDS011;3632;42.724;23.298;2023-03-23T14:30:24;5.33;;;4.80;;
7181;SDS011;3632;42.724;23.298;2023-03-23T14:32:53;6.07;;;5.50;;
7181;SDS011;3632;42.724;23.298;2023-03-23T14:35:31;7.73;;;6.97;;
7181;SDS011;3632;42.724;23.298;2023-03-23T14:37:59;7.27;;;6.57;;
7181;SDS011;3632;42.724;23.298;2023-03-23T14:40:27;7.63;;;4.83;;
7181;SDS011;3632;42.724;23.298;2023-03-23T14:42:55;6.07;;;5.47;;
7181;SDS011;3632;42.724;23.298;2023-03-23T14:45:23;7.23;;;6.53;;
7181;SDS011;3632;42.724;23.298;2023-03-23T14:47:52;7.50;;;5.93;;
7181;SDS011;3632;42.724;23.298;2023-03-23T14:50:23;7.90;;;5.40;;
7181;SDS011;3632;42.724;23.298;2023-03-23T14:52:55;6.83;;;6.13;;
7181;SDS011;3632;42.724;23.298;2023-03-23T14:55:24;9.37;;;6.10;;
7181;SDS011;3632;42.724;23.298;2023-03-23T14:57:53;5.73;;;5.23;;
7181;SDS011;3632;42.724;23.298;2023-03-23T15:00:21;6.70;;;5.60;;
7181;SDS011;3632;42.724;23.298;2023-03-23T15:02:50;5.77;;;4.90;;
7181;SDS011;3632;42.724;23.298;2023-03-23T15:05:20;8.13;;;7.17;;
7181;SDS011;3632;42.724;23.298;2023-03-23T15:07:53;6.63;;;5.87;;
7181;SDS011;3632;42.724;23.298;2023-03-23T15:10:26;7.17;;;6.27;;
7181;SDS011;3632;42.724;23.298;2023-03-23T15:12:53;7.13;;;5.70;;
7181;SDS011;3632;42.724;23.298;2023-03-23T15:15:24;7.80;;;5.33;;